weather.gov     
National Weather Service

Terminal Aerodrome Forecast
NWS Homepage
This page is being discontinued on March 12, 2014.
The same data is available at this site. Please update your bookmarks.
Thank you, and we apologize for the inconvenience.
Please send an email to SR-SRH.Webmaster@noaa.gov with any concerns.


Current Version
Previous Version:    01  02  03  04  05  06  07  08  09  10  11  12  13  14  15  16  17  18  19  20  21  22  23  24  25  26  27  28  29  30  
   31  32  33  34  35  36  37  38  39  
[Printable]
419
FTUS43 KSGF 240500
TAFJLN
TAF
KJLN 240522Z 2406/2506 17017G26KT P6SM SCT150 BKN200 WS018/19050KT
     FM241300 19020G30KT 6SM -SHRA BR VCTS BKN050CB OVC070
      TEMPO 2413/2417 4SM TSRA BR OVC040CB
     FM241700 21018G26KT 6SM -SHRA BR VCTS BKN040CB OVC080
      TEMPO 2417/2421 4SM TSRA BR BKN030CB
     FM242100 26016G24KT P6SM -SHRA VCTS OVC040CB
     FM242300 29012KT P6SM SCT080=


U.S. Dept. of Commerce
NOAA National Weather Service
1325 East West Highway
Silver Spring, MD 20910
E-mail: w-nws.webmaster@noaa.gov
Page last modified: May 16, 2007
NATIONAL WEATHER SERVICE: for Safety, for Work, for Fun - FOR LIFE